sensor_id;sensor_type;location;lat;lon;timestamp;pressure;altitude;pressure_sealevel;temperature;humidity
77149;BME280;66122;47.130;16.844;2023-07-29T00:08:41;99292.41;;;19.50;100.00
77149;BME280;66122;47.130;16.844;2023-07-29T00:18:44;99292.41;;;19.40;100.00
77149;BME280;66122;47.130;16.844;2023-07-29T00:28:46;99288.88;;;19.49;100.00
77149;BME280;66122;47.130;16.844;2023-07-29T00:38:49;99280.63;;;19.24;100.00
77149;BME280;66122;47.130;16.844;2023-07-29T00:48:51;99279.88;;;19.04;100.00
77149;BME280;66122;47.130;16.844;2023-07-29T00:58:54;99286.66;;;19.08;100.00
77149;BME280;66122;47.130;16.844;2023-07-29T01:09:04;99289.50;;;18.97;100.00
77149;BME280;66122;47.130;16.844;2023-07-29T01:19:22;99286.44;;;19.19;100.00
77149;BME280;66122;47.130;16.844;2023-07-29T01:29:28;99298.88;;;18.93;100.00
77149;BME280;66122;47.130;16.844;2023-07-29T01:39:32;99296.44;;;18.99;100.00
77149;BME280;66122;47.130;16.844;2023-07-29T01:49:37;99273.78;;;19.02;100.00
77149;BME280;66122;47.130;16.844;2023-07-29T01:59:40;99260.81;;;18.97;100.00
77149;BME280;66122;47.130;16.844;2023-07-29T02:09:42;99277.78;;;18.98;100.00
77149;BME280;66122;47.130;16.844;2023-07-29T02:19:45;99274.22;;;19.07;100.00
77149;BME280;66122;47.130;16.844;2023-07-29T02:29:48;99266.78;;;18.91;100.00
77149;BME280;66122;47.130;16.844;2023-07-29T02:39:50;99276.91;;;18.60;100.00
77149;BME280;66122;47.130;16.844;2023-07-29T02:49:53;99267.59;;;18.45;100.00
77149;BME280;66122;47.130;16.844;2023-07-29T02:59:56;99259.31;;;18.29;100.00
77149;BME280;66122;47.130;16.844;2023-07-29T03:09:58;99269.03;;;18.40;100.00
77149;BME280;66122;47.130;16.844;2023-07-29T03:20:01;99270.72;;;18.31;100.00
77149;BME280;66122;47.130;16.844;2023-07-29T03:30:04;99274.13;;;18.43;100.00
77149;BME280;66122;47.130;16.844;2023-07-29T03:40:07;99276.09;;;18.31;100.00
77149;BME280;66122;47.130;16.844;2023-07-29T03:50:11;99291.22;;;18.22;100.00
77149;BME280;66122;47.130;16.844;2023-07-29T04:00:14;99293.19;;;18.11;100.00
77149;BME280;66122;47.130;16.844;2023-07-29T04:10:16;99301.09;;;18.03;100.00
77149;BME280;66122;47.130;16.844;2023-07-29T04:20:19;99310.56;;;18.26;100.00
77149;BME280;66122;47.130;16.844;2023-07-29T04:30:21;99318.03;;;18.32;100.00
77149;BME280;66122;47.130;16.844;2023-07-29T04:40:24;99340.75;;;18.47;100.00
77149;BME280;66122;47.130;16.844;2023-07-29T04:50:27;99357.56;;;18.78;100.00
77149;BME280;66122;47.130;16.844;2023-07-29T05:00:29;99371.78;;;18.88;100.00
77149;BME280;66122;47.130;16.844;2023-07-29T05:10:32;99384.69;;;18.85;100.00
77149;BME280;66122;47.130;16.844;2023-07-29T05:20:35;99391.38;;;19.18;100.00
77149;BME280;66122;47.130;16.844;2023-07-29T05:30:37;99396.59;;;19.93;100.00
77149;BME280;66122;47.130;16.844;2023-07-29T05:40:42;99392.69;;;21.20;100.00
77149;BME280;66122;47.130;16.844;2023-07-29T05:50:45;99375.28;;;22.32;92.34
77149;BME280;66122;47.130;16.844;2023-07-29T06:00:47;99384.75;;;22.69;90.73
77149;BME280;66122;47.130;16.844;2023-07-29T06:10:53;99385.19;;;23.29;85.04
77149;BME280;66122;47.130;16.844;2023-07-29T06:20:56;99376.09;;;22.16;86.76
77149;BME280;66122;47.130;16.844;2023-07-29T06:30:58;99373.38;;;23.22;83.76
77149;BME280;66122;47.130;16.844;2023-07-29T06:41:01;99372.16;;;24.19;81.16
77149;BME280;66122;47.130;16.844;2023-07-29T06:51:04;99377.53;;;24.95;73.97
77149;BME280;66122;47.130;16.844;2023-07-29T07:01:06;99380.44;;;24.17;77.94
77149;BME280;66122;47.130;16.844;2023-07-29T07:11:09;99381.41;;;24.55;74.31
77149;BME280;66122;47.130;16.844;2023-07-29T07:21:11;99388.94;;;24.45;75.78
77149;BME280;66122;47.130;16.844;2023-07-29T07:31:14;99380.50;;;24.40;75.86
77149;BME280;66122;47.130;16.844;2023-07-29T07:41:22;99380.59;;;24.24;77.22
77149;BME280;66122;47.130;16.844;2023-07-29T07:51:24;99379.56;;;24.93;72.60
77149;BME280;66122;47.130;16.844;2023-07-29T08:01:34;99377.75;;;25.23;71.58
77149;BME280;66122;47.130;16.844;2023-07-29T08:11:36;99377.47;;;25.33;70.61
77149;BME280;66122;47.130;16.844;2023-07-29T08:21:39;99357.97;;;26.38;65.32
77149;BME280;66122;47.130;16.844;2023-07-29T08:31:41;99359.38;;;26.98;64.64
77149;BME280;66122;47.130;16.844;2023-07-29T08:42:07;99352.84;;;26.71;63.87
77149;BME280;66122;47.130;16.844;2023-07-29T08:52:14;99338.97;;;27.91;61.82
77149;BME280;66122;47.130;16.844;2023-07-29T09:02:17;99339.13;;;27.42;59.01
77149;BME280;66122;47.130;16.844;2023-07-29T09:12:20;99333.69;;;28.44;55.01
77149;BME280;66122;47.130;16.844;2023-07-29T09:22:23;99334.09;;;28.47;54.36
77149;BME280;66122;47.130;16.844;2023-07-29T09:32:27;99336.19;;;29.11;54.28
77149;BME280;66122;47.130;16.844;2023-07-29T09:42:30;99340.19;;;27.82;52.58
77149;BME280;66122;47.130;16.844;2023-07-29T09:52:32;99324.72;;;27.48;53.03
77149;BME280;66122;47.130;16.844;2023-07-29T10:02:35;99315.25;;;28.85;52.01
77149;BME280;66122;47.130;16.844;2023-07-29T10:12:39;99312.69;;;29.87;50.23
77149;BME280;66122;47.130;16.844;2023-07-29T10:22:43;99305.13;;;29.12;54.24
77149;BME280;66122;47.130;16.844;2023-07-29T10:32:46;99295.31;;;28.85;53.67
77149;BME280;66122;47.130;16.844;2023-07-29T10:43:00;99305.41;;;30.44;51.11
77149;BME280;66122;47.130;16.844;2023-07-29T10:53:06;99299.25;;;31.23;46.13
77149;BME280;66122;47.130;16.844;2023-07-29T11:03:09;99284.69;;;31.04;45.92
77149;BME280;66122;47.130;16.844;2023-07-29T11:13:12;99283.25;;;29.32;52.48
77149;BME280;66122;47.130;16.844;2023-07-29T11:23:16;99261.66;;;29.68;51.73
77149;BME280;66122;47.130;16.844;2023-07-29T11:33:20;99252.56;;;31.18;44.44
77149;BME280;66122;47.130;16.844;2023-07-29T11:43:24;99243.84;;;31.76;45.84
77149;BME280;66122;47.130;16.844;2023-07-29T11:53:28;99228.66;;;30.64;46.74
77149;BME280;66122;47.130;16.844;2023-07-29T12:03:32;99200.78;;;30.74;47.97
77149;BME280;66122;47.130;16.844;2023-07-29T12:13:37;99189.22;;;29.90;51.77
77149;BME280;66122;47.130;16.844;2023-07-29T12:23:40;99179.41;;;30.14;51.02
77149;BME280;66122;47.130;16.844;2023-07-29T12:33:43;99165.19;;;30.31;50.51
77149;BME280;66122;47.130;16.844;2023-07-29T12:43:45;99172.59;;;29.67;52.47
77149;BME280;66122;47.130;16.844;2023-07-29T12:53:48;99172.94;;;31.79;45.89
77149;BME280;66122;47.130;16.844;2023-07-29T13:03:51;99169.41;;;33.07;42.14
77149;BME280;66122;47.130;16.844;2023-07-29T13:13:53;99161.53;;;30.37;49.42
77149;BME280;66122;47.130;16.844;2023-07-29T13:23:56;99144.78;;;32.26;42.48
77149;BME280;66122;47.130;16.844;2023-07-29T13:33:58;99138.28;;;31.55;45.43
77149;BME280;66122;47.130;16.844;2023-07-29T13:44:01;99154.81;;;31.19;44.70
77149;BME280;66122;47.130;16.844;2023-07-29T13:54:03;99162.53;;;31.40;43.11
77149;BME280;66122;47.130;16.844;2023-07-29T14:04:06;99173.63;;;30.54;45.98
77149;BME280;66122;47.130;16.844;2023-07-29T14:14:08;99173.59;;;29.73;48.87
77149;BME280;66122;47.130;16.844;2023-07-29T14:24:11;99168.19;;;29.22;49.20
77149;BME280;66122;47.130;16.844;2023-07-29T14:34:13;99168.59;;;28.41;51.84
77149;BME280;66122;47.130;16.844;2023-07-29T14:44:16;99247.59;;;26.93;52.40
77149;BME280;66122;47.130;16.844;2023-07-29T14:54:18;99301.50;;;23.35;65.18
77149;BME280;66122;47.130;16.844;2023-07-29T15:04:21;99323.72;;;20.22;95.88
77149;BME280;66122;47.130;16.844;2023-07-29T15:14:23;99254.28;;;20.69;100.00
77149;BME280;66122;47.130;16.844;2023-07-29T15:24:26;99233.00;;;21.18;100.00
77149;BME280;66122;47.130;16.844;2023-07-29T15:34:32;99212.25;;;22.25;95.36
77149;BME280;66122;47.130;16.844;2023-07-29T15:44:35;99169.09;;;24.77;81.36
77149;BME280;66122;47.130;16.844;2023-07-29T15:54:40;99162.56;;;25.37;72.74
77149;BME280;66122;47.130;16.844;2023-07-29T16:04:42;99156.00;;;24.51;78.27
77149;BME280;66122;47.130;16.844;2023-07-29T16:14:45;99149.06;;;26.29;70.68
77149;BME280;66122;47.130;16.844;2023-07-29T16:24:47;99171.00;;;26.27;73.18
77149;BME280;66122;47.130;16.844;2023-07-29T16:34:50;99165.66;;;26.19;70.88
77149;BME280;66122;47.130;16.844;2023-07-29T16:44:53;99183.09;;;24.51;82.54
77149;BME280;66122;47.130;16.844;2023-07-29T16:54:56;99170.06;;;24.18;84.61
77149;BME280;66122;47.130;16.844;2023-07-29T17:04:59;99181.47;;;24.28;86.42
77149;BME280;66122;47.130;16.844;2023-07-29T17:15:02;99182.56;;;24.56;83.92
77149;BME280;66122;47.130;16.844;2023-07-29T17:25:05;99204.38;;;24.02;84.92
77149;BME280;66122;47.130;16.844;2023-07-29T17:35:08;99199.56;;;23.36;91.16
77149;BME280;66122;47.130;16.844;2023-07-29T17:45:11;99196.72;;;22.98;92.08
77149;BME280;66122;47.130;16.844;2023-07-29T17:55:13;99203.38;;;22.72;93.47
77149;BME280;66122;47.130;16.844;2023-07-29T18:05:16;99209.03;;;22.30;98.23
77149;BME280;66122;47.130;16.844;2023-07-29T18:15:18;99222.84;;;21.86;99.67
77149;BME280;66122;47.130;16.844;2023-07-29T18:25:21;99222.50;;;21.65;100.00
77149;BME280;66122;47.130;16.844;2023-07-29T18:35:23;99223.47;;;21.48;100.00
77149;BME280;66122;47.130;16.844;2023-07-29T18:45:26;99216.50;;;21.21;100.00
77149;BME280;66122;47.130;16.844;2023-07-29T18:55:31;99215.81;;;21.19;100.00
77149;BME280;66122;47.130;16.844;2023-07-29T19:05:34;99223.25;;;20.91;100.00
77149;BME280;66122;47.130;16.844;2023-07-29T19:15:36;99236.25;;;21.03;100.00
77149;BME280;66122;47.130;16.844;2023-07-29T19:25:48;99253.22;;;20.88;100.00
77149;BME280;66122;47.130;16.844;2023-07-29T19:35:54;99272.31;;;20.77;100.00
77149;BME280;66122;47.130;16.844;2023-07-29T19:45:58;99267.88;;;20.59;100.00
77149;BME280;66122;47.130;16.844;2023-07-29T19:56:04;99280.06;;;20.46;100.00
77149;BME280;66122;47.130;16.844;2023-07-29T20:06:07;99250.69;;;20.35;100.00
77149;BME280;66122;47.130;16.844;2023-07-29T20:16:09;99250.94;;;20.32;100.00
77149;BME280;66122;47.130;16.844;2023-07-29T20:26:12;99261.63;;;20.15;100.00
77149;BME280;66122;47.130;16.844;2023-07-29T20:36:15;99275.00;;;20.07;100.00
77149;BME280;66122;47.130;16.844;2023-07-29T20:46:21;99280.22;;;19.91;100.00
77149;BME280;66122;47.130;16.844;2023-07-29T20:56:24;99299.38;;;19.88;100.00
77149;BME280;66122;47.130;16.844;2023-07-29T21:06:26;99350.63;;;20.04;100.00
77149;BME280;66122;47.130;16.844;2023-07-29T21:16:29;99372.25;;;20.65;100.00
77149;BME280;66122;47.130;16.844;2023-07-29T21:26:32;99387.44;;;20.92;100.00
77149;BME280;66122;47.130;16.844;2023-07-29T21:36:34;99437.50;;;20.77;95.99
77149;BME280;66122;47.130;16.844;2023-07-29T21:46:37;99480.19;;;20.37;95.01
77149;BME280;66122;47.130;16.844;2023-07-29T21:56:39;99474.66;;;19.74;93.41
77149;BME280;66122;47.130;16.844;2023-07-29T22:06:42;99525.69;;;18.50;100.00
77149;BME280;66122;47.130;16.844;2023-07-29T22:16:45;99466.22;;;17.95;100.00
77149;BME280;66122;47.130;16.844;2023-07-29T22:26:48;99487.66;;;17.95;100.00
77149;BME280;66122;47.130;16.844;2023-07-29T22:36:51;99448.44;;;17.94;100.00
77149;BME280;66122;47.130;16.844;2023-07-29T22:46:55;99401.28;;;17.52;100.00
77149;BME280;66122;47.130;16.844;2023-07-29T22:56:58;99407.56;;;17.62;100.00
77149;BME280;66122;47.130;16.844;2023-07-29T23:07:00;99401.97;;;17.75;100.00
77149;BME280;66122;47.130;16.844;2023-07-29T23:17:03;99401.81;;;17.76;100.00
77149;BME280;66122;47.130;16.844;2023-07-29T23:27:06;99401.28;;;17.52;100.00
77149;BME280;66122;47.130;16.844;2023-07-29T23:37:09;99365.53;;;17.63;100.00
77149;BME280;66122;47.130;16.844;2023-07-29T23:47:11;99352.78;;;17.55;100.00
77149;BME280;66122;47.130;16.844;2023-07-29T23:57:14;99328.88;;;17.63;100.00
